Terminal Aerodrome Forecast
Issued by NWS

Home | Current Version | Previous Version | Text Only | Print | Product List | Glossary On
Versions: 1 2 3 4 5 6 7 8 9 10 11 12 13 14 15 16
000
FTUS44 KLIX 282300
TAFMSY
TAF
KMSY 282332Z 0100/0124 10009KT P6SM BKN070
     FM010600 09010KT P6SM SCT008 BKN015
      TEMPO 0109/0113 4SM BR BKN008
     FM011500 10011KT P6SM OVC015
     FM012300 10010KT P6SM OVC008=

USA.gov is the U.S. government's official web portal to all federal, state and local government web resources and services.